sensor_id;sensor_type;location;lat;lon;timestamp;P1;durP1;ratioP1;P2;durP2;ratioP2
40871;SDS011;26591;43.264;26.940;2022-12-20T00:01:28;24.30;;;13.57;;
40871;SDS011;26591;43.264;26.940;2022-12-20T00:03:58;24.45;;;13.32;;
40871;SDS011;26591;43.264;26.940;2022-12-20T00:06:26;24.80;;;14.13;;
40871;SDS011;26591;43.264;26.940;2022-12-20T00:08:56;27.02;;;12.30;;
40871;SDS011;26591;43.264;26.940;2022-12-20T00:11:24;26.25;;;13.23;;
40871;SDS011;26591;43.264;26.940;2022-12-20T00:13:51;26.20;;;13.80;;
40871;SDS011;26591;43.264;26.940;2022-12-20T00:16:18;30.65;;;14.88;;
40871;SDS011;26591;43.264;26.940;2022-12-20T00:18:45;27.90;;;13.38;;
40871;SDS011;26591;43.264;26.940;2022-12-20T00:21:14;35.38;;;16.60;;
40871;SDS011;26591;43.264;26.940;2022-12-20T00:23:40;28.65;;;15.40;;
40871;SDS011;26591;43.264;26.940;2022-12-20T00:26:07;39.67;;;17.90;;
40871;SDS011;26591;43.264;26.940;2022-12-20T00:28:33;39.35;;;18.38;;
40871;SDS011;26591;43.264;26.940;2022-12-20T00:31:00;44.97;;;22.05;;
40871;SDS011;26591;43.264;26.940;2022-12-20T00:33:26;35.20;;;17.10;;
40871;SDS011;26591;43.264;26.940;2022-12-20T00:35:53;30.98;;;15.57;;
40871;SDS011;26591;43.264;26.940;2022-12-20T00:38:20;54.20;;;27.77;;
40871;SDS011;26591;43.264;26.940;2022-12-20T00:40:46;34.22;;;17.92;;
40871;SDS011;26591;43.264;26.940;2022-12-20T00:43:12;25.98;;;14.43;;
40871;SDS011;26591;43.264;26.940;2022-12-20T00:45:38;26.40;;;14.45;;
40871;SDS011;26591;43.264;26.940;2022-12-20T00:48:03;27.20;;;13.68;;
40871;SDS011;26591;43.264;26.940;2022-12-20T00:50:29;28.17;;;14.23;;
40871;SDS011;26591;43.264;26.940;2022-12-20T00:52:55;42.80;;;20.80;;
40871;SDS011;26591;43.264;26.940;2022-12-20T00:55:20;28.42;;;14.57;;
40871;SDS011;26591;43.264;26.940;2022-12-20T00:57:46;24.95;;;13.45;;
40871;SDS011;26591;43.264;26.940;2022-12-20T01:00:11;29.55;;;15.23;;
40871;SDS011;26591;43.264;26.940;2022-12-20T01:02:37;25.60;;;14.10;;
40871;SDS011;26591;43.264;26.940;2022-12-20T01:05:03;29.77;;;14.07;;
40871;SDS011;26591;43.264;26.940;2022-12-20T01:07:29;27.90;;;14.43;;
40871;SDS011;26591;43.264;26.940;2022-12-20T01:09:54;28.05;;;14.05;;
40871;SDS011;26591;43.264;26.940;2022-12-20T01:12:19;31.42;;;15.73;;
40871;SDS011;26591;43.264;26.940;2022-12-20T01:14:45;31.27;;;14.25;;
40871;SDS011;26591;43.264;26.940;2022-12-20T01:17:11;27.30;;;14.32;;
40871;SDS011;26591;43.264;26.940;2022-12-20T01:19:36;27.05;;;13.25;;
40871;SDS011;26591;43.264;26.940;2022-12-20T01:22:01;28.95;;;14.82;;
40871;SDS011;26591;43.264;26.940;2022-12-20T01:24:27;26.02;;;14.05;;
40871;SDS011;26591;43.264;26.940;2022-12-20T01:26:53;25.75;;;14.27;;
40871;SDS011;26591;43.264;26.940;2022-12-20T01:29:18;25.48;;;13.98;;
40871;SDS011;26591;43.264;26.940;2022-12-20T01:31:44;25.65;;;13.02;;
40871;SDS011;26591;43.264;26.940;2022-12-20T01:34:09;22.88;;;13.18;;
40871;SDS011;26591;43.264;26.940;2022-12-20T01:36:36;26.13;;;14.02;;
40871;SDS011;26591;43.264;26.940;2022-12-20T01:39:20;25.25;;;13.50;;
40871;SDS011;26591;43.264;26.940;2022-12-20T01:41:46;23.85;;;12.35;;
40871;SDS011;26591;43.264;26.940;2022-12-20T01:46:44;25.58;;;13.48;;
40871;SDS011;26591;43.264;26.940;2022-12-20T01:49:16;29.77;;;14.85;;
40871;SDS011;26591;43.264;26.940;2022-12-20T01:51:46;26.58;;;14.68;;
40871;SDS011;26591;43.264;26.940;2022-12-20T01:54:38;22.20;;;12.73;;
40871;SDS011;26591;43.264;26.940;2022-12-20T01:57:10;26.77;;;13.00;;
40871;SDS011;26591;43.264;26.940;2022-12-20T01:59:39;25.63;;;14.07;;
40871;SDS011;26591;43.264;26.940;2022-12-20T02:02:09;27.27;;;14.07;;
40871;SDS011;26591;43.264;26.940;2022-12-20T02:07:30;26.73;;;13.35;;
40871;SDS011;26591;43.264;26.940;2022-12-20T02:09:59;24.17;;;13.25;;
40871;SDS011;26591;43.264;26.940;2022-12-20T02:12:32;25.08;;;13.68;;
40871;SDS011;26591;43.264;26.940;2022-12-20T02:20:49;27.40;;;13.73;;
40871;SDS011;26591;43.264;26.940;2022-12-20T02:32:15;21.35;;;13.07;;
40871;SDS011;26591;43.264;26.940;2022-12-20T02:34:44;24.63;;;12.73;;
40871;SDS011;26591;43.264;26.940;2022-12-20T02:37:10;26.27;;;13.40;;
40871;SDS011;26591;43.264;26.940;2022-12-20T02:39:36;23.95;;;12.90;;
40871;SDS011;26591;43.264;26.940;2022-12-20T02:42:14;26.77;;;13.32;;
40871;SDS011;26591;43.264;26.940;2022-12-20T02:44:46;26.58;;;12.80;;
40871;SDS011;26591;43.264;26.940;2022-12-20T02:47:39;24.63;;;13.35;;
40871;SDS011;26591;43.264;26.940;2022-12-20T02:50:11;23.33;;;12.70;;
40871;SDS011;26591;43.264;26.940;2022-12-20T02:52:41;27.35;;;13.07;;
40871;SDS011;26591;43.264;26.940;2022-12-20T02:55:06;26.98;;;13.55;;
40871;SDS011;26591;43.264;26.940;2022-12-20T03:02:32;26.80;;;13.63;;
40871;SDS011;26591;43.264;26.940;2022-12-20T03:05:18;24.75;;;13.48;;
40871;SDS011;26591;43.264;26.940;2022-12-20T03:07:45;23.33;;;12.70;;
40871;SDS011;26591;43.264;26.940;2022-12-20T03:10:11;24.95;;;13.10;;
40871;SDS011;26591;43.264;26.940;2022-12-20T03:12:36;27.15;;;15.10;;
40871;SDS011;26591;43.264;26.940;2022-12-20T03:15:05;25.02;;;13.02;;
40871;SDS011;26591;43.264;26.940;2022-12-20T03:17:31;27.42;;;13.13;;
40871;SDS011;26591;43.264;26.940;2022-12-20T03:19:56;30.45;;;14.45;;
40871;SDS011;26591;43.264;26.940;2022-12-20T03:22:22;25.73;;;13.55;;
40871;SDS011;26591;43.264;26.940;2022-12-20T03:24:48;26.15;;;14.18;;
40871;SDS011;26591;43.264;26.940;2022-12-20T03:27:14;26.17;;;13.50;;
40871;SDS011;26591;43.264;26.940;2022-12-20T03:29:40;26.83;;;15.23;;
40871;SDS011;26591;43.264;26.940;2022-12-20T03:32:05;28.83;;;15.52;;
40871;SDS011;26591;43.264;26.940;2022-12-20T03:34:31;28.13;;;15.65;;
40871;SDS011;26591;43.264;26.940;2022-12-20T03:36:59;27.38;;;15.10;;
40871;SDS011;26591;43.264;26.940;2022-12-20T03:39:24;29.55;;;16.20;;
40871;SDS011;26591;43.264;26.940;2022-12-20T03:41:49;29.52;;;15.80;;
40871;SDS011;26591;43.264;26.940;2022-12-20T03:44:15;33.50;;;16.10;;
40871;SDS011;26591;43.264;26.940;2022-12-20T03:46:40;30.00;;;15.73;;
40871;SDS011;26591;43.264;26.940;2022-12-20T03:49:06;32.35;;;16.27;;
40871;SDS011;26591;43.264;26.940;2022-12-20T03:51:31;24.70;;;13.82;;
40871;SDS011;26591;43.264;26.940;2022-12-20T03:53:57;34.78;;;15.48;;
40871;SDS011;26591;43.264;26.940;2022-12-20T03:56:22;27.70;;;14.20;;
40871;SDS011;26591;43.264;26.940;2022-12-20T03:58:48;31.45;;;14.20;;
40871;SDS011;26591;43.264;26.940;2022-12-20T04:01:31;29.33;;;15.98;;
40871;SDS011;26591;43.264;26.940;2022-12-20T04:04:00;32.55;;;15.88;;
40871;SDS011;26591;43.264;26.940;2022-12-20T04:06:26;34.13;;;17.55;;
40871;SDS011;26591;43.264;26.940;2022-12-20T04:08:52;31.33;;;17.27;;
40871;SDS011;26591;43.264;26.940;2022-12-20T04:11:20;33.03;;;17.73;;
40871;SDS011;26591;43.264;26.940;2022-12-20T04:13:50;34.22;;;17.15;;
40871;SDS011;26591;43.264;26.940;2022-12-20T04:16:18;36.25;;;17.10;;
40871;SDS011;26591;43.264;26.940;2022-12-20T04:18:49;45.13;;;20.65;;
40871;SDS011;26591;43.264;26.940;2022-12-20T04:21:20;36.97;;;17.50;;
40871;SDS011;26591;43.264;26.940;2022-12-20T04:26:12;32.58;;;15.82;;
40871;SDS011;26591;43.264;26.940;2022-12-20T04:28:37;37.95;;;17.30;;
40871;SDS011;26591;43.264;26.940;2022-12-20T04:31:03;36.88;;;19.48;;
40871;SDS011;26591;43.264;26.940;2022-12-20T04:33:29;37.50;;;18.80;;
40871;SDS011;26591;43.264;26.940;2022-12-20T04:35:54;33.92;;;16.83;;
40871;SDS011;26591;43.264;26.940;2022-12-20T04:38:20;45.92;;;21.35;;
40871;SDS011;26591;43.264;26.940;2022-12-20T04:40:48;33.45;;;18.30;;
40871;SDS011;26591;43.264;26.940;2022-12-20T04:43:15;36.05;;;17.48;;
40871;SDS011;26591;43.264;26.940;2022-12-20T04:45:42;41.33;;;21.30;;
40871;SDS011;26591;43.264;26.940;2022-12-20T04:48:15;41.78;;;19.95;;
40871;SDS011;26591;43.264;26.940;2022-12-20T04:50:41;41.03;;;19.05;;
40871;SDS011;26591;43.264;26.940;2022-12-20T04:53:08;41.40;;;18.77;;
40871;SDS011;26591;43.264;26.940;2022-12-20T04:56:05;36.50;;;16.30;;
40871;SDS011;26591;43.264;26.940;2022-12-20T04:58:32;33.30;;;17.33;;
40871;SDS011;26591;43.264;26.940;2022-12-20T05:00:58;34.45;;;16.52;;
40871;SDS011;26591;43.264;26.940;2022-12-20T05:03:24;38.78;;;17.70;;
40871;SDS011;26591;43.264;26.940;2022-12-20T05:05:50;33.75;;;17.05;;
40871;SDS011;26591;43.264;26.940;2022-12-20T05:08:16;39.05;;;19.65;;
40871;SDS011;26591;43.264;26.940;2022-12-20T05:10:42;40.10;;;19.67;;
40871;SDS011;26591;43.264;26.940;2022-12-20T05:13:08;34.95;;;17.48;;
40871;SDS011;26591;43.264;26.940;2022-12-20T05:15:34;29.02;;;16.85;;
40871;SDS011;26591;43.264;26.940;2022-12-20T05:18:01;34.97;;;17.83;;
40871;SDS011;26591;43.264;26.940;2022-12-20T05:20:29;34.22;;;17.05;;
40871;SDS011;26591;43.264;26.940;2022-12-20T05:22:55;43.17;;;22.60;;
40871;SDS011;26591;43.264;26.940;2022-12-20T05:25:44;42.45;;;19.58;;
40871;SDS011;26591;43.264;26.940;2022-12-20T05:28:26;31.38;;;17.02;;
40871;SDS011;26591;43.264;26.940;2022-12-20T05:30:52;37.40;;;18.73;;
40871;SDS011;26591;43.264;26.940;2022-12-20T05:33:17;59.05;;;20.58;;
40871;SDS011;26591;43.264;26.940;2022-12-20T05:35:43;32.85;;;16.35;;
40871;SDS011;26591;43.264;26.940;2022-12-20T05:38:08;42.95;;;18.38;;
40871;SDS011;26591;43.264;26.940;2022-12-20T05:40:34;40.60;;;18.75;;
40871;SDS011;26591;43.264;26.940;2022-12-20T05:42:59;35.75;;;19.00;;
40871;SDS011;26591;43.264;26.940;2022-12-20T05:45:25;41.17;;;21.40;;
40871;SDS011;26591;43.264;26.940;2022-12-20T05:47:51;38.30;;;18.83;;
40871;SDS011;26591;43.264;26.940;2022-12-20T05:50:16;35.50;;;17.85;;
40871;SDS011;26591;43.264;26.940;2022-12-20T05:52:42;34.40;;;18.00;;
40871;SDS011;26591;43.264;26.940;2022-12-20T05:55:07;33.17;;;16.58;;
40871;SDS011;26591;43.264;26.940;2022-12-20T05:57:34;40.72;;;18.42;;
40871;SDS011;26591;43.264;26.940;2022-12-20T06:00:00;43.28;;;21.40;;
40871;SDS011;26591;43.264;26.940;2022-12-20T06:02:26;44.13;;;18.98;;
40871;SDS011;26591;43.264;26.940;2022-12-20T06:04:51;43.28;;;18.98;;
40871;SDS011;26591;43.264;26.940;2022-12-20T06:07:25;37.00;;;17.58;;
40871;SDS011;26591;43.264;26.940;2022-12-20T06:09:58;46.08;;;18.95;;
40871;SDS011;26591;43.264;26.940;2022-12-20T06:12:24;46.90;;;19.08;;
40871;SDS011;26591;43.264;26.940;2022-12-20T06:14:49;47.30;;;19.95;;
40871;SDS011;26591;43.264;26.940;2022-12-20T06:17:15;43.35;;;23.83;;
40871;SDS011;26591;43.264;26.940;2022-12-20T06:19:41;56.50;;;24.33;;
40871;SDS011;26591;43.264;26.940;2022-12-20T06:22:09;40.00;;;18.52;;
40871;SDS011;26591;43.264;26.940;2022-12-20T06:24:35;61.17;;;28.40;;
40871;SDS011;26591;43.264;26.940;2022-12-20T06:27:01;44.15;;;22.60;;
40871;SDS011;26591;43.264;26.940;2022-12-20T06:29:27;64.63;;;31.48;;
40871;SDS011;26591;43.264;26.940;2022-12-20T06:31:53;33.75;;;15.75;;
40871;SDS011;26591;43.264;26.940;2022-12-20T06:34:31;47.67;;;23.73;;
40871;SDS011;26591;43.264;26.940;2022-12-20T06:36:58;54.85;;;24.05;;
40871;SDS011;26591;43.264;26.940;2022-12-20T06:39:24;51.90;;;27.38;;
40871;SDS011;26591;43.264;26.940;2022-12-20T06:41:49;70.10;;;33.55;;
40871;SDS011;26591;43.264;26.940;2022-12-20T06:44:14;47.13;;;23.90;;
40871;SDS011;26591;43.264;26.940;2022-12-20T06:46:40;35.55;;;19.08;;
40871;SDS011;26591;43.264;26.940;2022-12-20T06:49:05;40.53;;;19.77;;
40871;SDS011;26591;43.264;26.940;2022-12-20T06:51:31;36.20;;;17.85;;
40871;SDS011;26591;43.264;26.940;2022-12-20T06:53:56;36.65;;;17.55;;
40871;SDS011;26591;43.264;26.940;2022-12-20T06:56:22;37.50;;;19.00;;
40871;SDS011;26591;43.264;26.940;2022-12-20T06:58:47;36.80;;;19.42;;
40871;SDS011;26591;43.264;26.940;2022-12-20T07:01:13;45.59;;;23.33;;
40871;SDS011;26591;43.264;26.940;2022-12-20T07:03:38;56.03;;;21.02;;
40871;SDS011;26591;43.264;26.940;2022-12-20T07:06:04;42.97;;;20.55;;
40871;SDS011;26591;43.264;26.940;2022-12-20T07:08:29;38.38;;;19.67;;
40871;SDS011;26591;43.264;26.940;2022-12-20T07:10:55;38.83;;;19.73;;
40871;SDS011;26591;43.264;26.940;2022-12-20T07:13:21;30.30;;;17.58;;
40871;SDS011;26591;43.264;26.940;2022-12-20T07:15:47;28.60;;;14.90;;
40871;SDS011;26591;43.264;26.940;2022-12-20T07:18:12;33.70;;;15.52;;
40871;SDS011;26591;43.264;26.940;2022-12-20T07:20:38;33.47;;;17.50;;
40871;SDS011;26591;43.264;26.940;2022-12-20T07:23:04;34.85;;;17.42;;
40871;SDS011;26591;43.264;26.940;2022-12-20T07:25:30;31.95;;;16.15;;
40871;SDS011;26591;43.264;26.940;2022-12-20T07:27:55;30.52;;;16.25;;
40871;SDS011;26591;43.264;26.940;2022-12-20T07:30:21;48.03;;;25.17;;
40871;SDS011;26591;43.264;26.940;2022-12-20T07:32:47;33.05;;;18.75;;
40871;SDS011;26591;43.264;26.940;2022-12-20T07:35:13;39.47;;;21.77;;
40871;SDS011;26591;43.264;26.940;2022-12-20T07:37:39;46.80;;;20.95;;
40871;SDS011;26591;43.264;26.940;2022-12-20T07:40:06;45.65;;;17.70;;
40871;SDS011;26591;43.264;26.940;2022-12-20T07:42:32;32.50;;;17.05;;
40871;SDS011;26591;43.264;26.940;2022-12-20T07:44:57;32.53;;;16.27;;
40871;SDS011;26591;43.264;26.940;2022-12-20T07:47:23;28.90;;;15.27;;
40871;SDS011;26591;43.264;26.940;2022-12-20T07:49:48;29.60;;;17.73;;
40871;SDS011;26591;43.264;26.940;2022-12-20T07:52:14;24.13;;;14.63;;
40871;SDS011;26591;43.264;26.940;2022-12-20T07:54:44;48.28;;;19.85;;
40871;SDS011;26591;43.264;26.940;2022-12-20T07:57:16;38.08;;;15.57;;
40871;SDS011;26591;43.264;26.940;2022-12-20T07:59:50;34.35;;;15.85;;
40871;SDS011;26591;43.264;26.940;2022-12-20T08:02:22;32.17;;;18.10;;
40871;SDS011;26591;43.264;26.940;2022-12-20T08:04:53;33.05;;;17.05;;
40871;SDS011;26591;43.264;26.940;2022-12-20T08:07:20;29.15;;;17.13;;
40871;SDS011;26591;43.264;26.940;2022-12-20T08:09:45;29.00;;;16.33;;
40871;SDS011;26591;43.264;26.940;2022-12-20T08:12:12;30.20;;;16.92;;
40871;SDS011;26591;43.264;26.940;2022-12-20T08:14:41;27.42;;;14.98;;
40871;SDS011;26591;43.264;26.940;2022-12-20T08:17:10;26.25;;;15.07;;
40871;SDS011;26591;43.264;26.940;2022-12-20T08:19:35;34.70;;;15.55;;
40871;SDS011;26591;43.264;26.940;2022-12-20T08:22:01;26.88;;;14.55;;
40871;SDS011;26591;43.264;26.940;2022-12-20T08:27:12;32.97;;;16.73;;
40871;SDS011;26591;43.264;26.940;2022-12-20T08:29:37;27.65;;;14.88;;
40871;SDS011;26591;43.264;26.940;2022-12-20T08:32:03;29.10;;;15.90;;
40871;SDS011;26591;43.264;26.940;2022-12-20T08:34:29;29.58;;;15.77;;
40871;SDS011;26591;43.264;26.940;2022-12-20T08:36:54;30.88;;;17.52;;
40871;SDS011;26591;43.264;26.940;2022-12-20T08:39:20;27.77;;;16.38;;
40871;SDS011;26591;43.264;26.940;2022-12-20T08:41:45;35.63;;;18.77;;
40871;SDS011;26591;43.264;26.940;2022-12-20T08:44:11;34.33;;;18.15;;
40871;SDS011;26591;43.264;26.940;2022-12-20T08:46:37;30.58;;;17.77;;
40871;SDS011;26591;43.264;26.940;2022-12-20T08:49:03;33.85;;;19.00;;
40871;SDS011;26591;43.264;26.940;2022-12-20T08:51:29;27.48;;;16.25;;
40871;SDS011;26591;43.264;26.940;2022-12-20T08:53:54;32.38;;;17.38;;
40871;SDS011;26591;43.264;26.940;2022-12-20T08:56:20;34.45;;;17.13;;
40871;SDS011;26591;43.264;26.940;2022-12-20T08:58:46;35.63;;;19.73;;
40871;SDS011;26591;43.264;26.940;2022-12-20T09:01:12;34.70;;;18.00;;
40871;SDS011;26591;43.264;26.940;2022-12-20T09:03:43;32.25;;;17.60;;
40871;SDS011;26591;43.264;26.940;2022-12-20T09:06:10;34.60;;;17.98;;
40871;SDS011;26591;43.264;26.940;2022-12-20T09:08:38;32.20;;;17.65;;
40871;SDS011;26591;43.264;26.940;2022-12-20T09:11:08;36.67;;;17.80;;
40871;SDS011;26591;43.264;26.940;2022-12-20T09:13:36;33.42;;;17.02;;
40871;SDS011;26591;43.264;26.940;2022-12-20T09:16:02;26.38;;;15.52;;
40871;SDS011;26591;43.264;26.940;2022-12-20T09:18:29;31.10;;;18.30;;
40871;SDS011;26591;43.264;26.940;2022-12-20T09:20:58;35.60;;;18.00;;
40871;SDS011;26591;43.264;26.940;2022-12-20T09:23:25;30.30;;;16.05;;
40871;SDS011;26591;43.264;26.940;2022-12-20T09:26:12;31.25;;;15.35;;
40871;SDS011;26591;43.264;26.940;2022-12-20T09:28:39;27.67;;;14.98;;
40871;SDS011;26591;43.264;26.940;2022-12-20T09:31:06;23.08;;;12.63;;
40871;SDS011;26591;43.264;26.940;2022-12-20T09:33:35;27.98;;;16.35;;
40871;SDS011;26591;43.264;26.940;2022-12-20T09:36:02;27.90;;;15.43;;
40871;SDS011;26591;43.264;26.940;2022-12-20T09:38:31;31.58;;;14.73;;
40871;SDS011;26591;43.264;26.940;2022-12-20T09:40:59;33.80;;;16.10;;
40871;SDS011;26591;43.264;26.940;2022-12-20T09:45:54;32.45;;;15.38;;
40871;SDS011;26591;43.264;26.940;2022-12-20T09:48:23;29.38;;;16.15;;
40871;SDS011;26591;43.264;26.940;2022-12-20T09:59:18;62.25;;;19.92;;
40871;SDS011;26591;43.264;26.940;2022-12-20T10:01:45;29.88;;;16.92;;
40871;SDS011;26591;43.264;26.940;2022-12-20T10:04:32;27.05;;;14.70;;
40871;SDS011;26591;43.264;26.940;2022-12-20T10:07:20;28.83;;;16.35;;
40871;SDS011;26591;43.264;26.940;2022-12-20T10:12:41;37.47;;;16.98;;
40871;SDS011;26591;43.264;26.940;2022-12-20T10:15:18;32.55;;;18.10;;
40871;SDS011;26591;43.264;26.940;2022-12-20T10:26:00;25.90;;;13.73;;
40871;SDS011;26591;43.264;26.940;2022-12-20T10:28:27;32.58;;;15.07;;
40871;SDS011;26591;43.264;26.940;2022-12-20T10:30:59;32.47;;;17.58;;
40871;SDS011;26591;43.264;26.940;2022-12-20T10:33:26;32.30;;;16.67;;
40871;SDS011;26591;43.264;26.940;2022-12-20T10:35:55;31.10;;;16.85;;
40871;SDS011;26591;43.264;26.940;2022-12-20T10:38:45;28.02;;;15.02;;
40871;SDS011;26591;43.264;26.940;2022-12-20T10:41:17;23.58;;;14.27;;
40871;SDS011;26591;43.264;26.940;2022-12-20T10:43:45;31.10;;;17.00;;
40871;SDS011;26591;43.264;26.940;2022-12-20T10:46:13;28.33;;;15.60;;
40871;SDS011;26591;43.264;26.940;2022-12-20T10:48:45;34.78;;;14.65;;
40871;SDS011;26591;43.264;26.940;2022-12-20T10:51:16;29.00;;;14.10;;
40871;SDS011;26591;43.264;26.940;2022-12-20T10:54:00;24.27;;;14.10;;
40871;SDS011;26591;43.264;26.940;2022-12-20T10:58:56;24.90;;;13.88;;
40871;SDS011;26591;43.264;26.940;2022-12-20T11:01:30;27.83;;;13.82;;
40871;SDS011;26591;43.264;26.940;2022-12-20T11:04:05;20.98;;;11.50;;
40871;SDS011;26591;43.264;26.940;2022-12-20T11:06:43;23.77;;;11.95;;
40871;SDS011;26591;43.264;26.940;2022-12-20T11:09:29;23.98;;;12.80;;
40871;SDS011;26591;43.264;26.940;2022-12-20T11:12:00;17.30;;;10.80;;
40871;SDS011;26591;43.264;26.940;2022-12-20T11:14:32;24.73;;;11.20;;
40871;SDS011;26591;43.264;26.940;2022-12-20T11:17:00;18.98;;;9.90;;
40871;SDS011;26591;43.264;26.940;2022-12-20T11:27:33;18.15;;;10.52;;
40871;SDS011;26591;43.264;26.940;2022-12-20T11:30:31;27.38;;;11.98;;
40871;SDS011;26591;43.264;26.940;2022-12-20T11:33:22;21.02;;;11.65;;
40871;SDS011;26591;43.264;26.940;2022-12-20T11:36:05;29.55;;;15.43;;
40871;SDS011;26591;43.264;26.940;2022-12-20T11:38:52;33.85;;;19.08;;
40871;SDS011;26591;43.264;26.940;2022-12-20T11:57:45;29.52;;;13.18;;
40871;SDS011;26591;43.264;26.940;2022-12-20T12:00:23;19.55;;;11.45;;
40871;SDS011;26591;43.264;26.940;2022-12-20T12:02:55;30.83;;;12.60;;
40871;SDS011;26591;43.264;26.940;2022-12-20T12:06:01;25.83;;;11.68;;
40871;SDS011;26591;43.264;26.940;2022-12-20T12:08:31;27.27;;;12.70;;
40871;SDS011;26591;43.264;26.940;2022-12-20T12:11:24;20.55;;;12.25;;
40871;SDS011;26591;43.264;26.940;2022-12-20T12:13:53;15.82;;;9.48;;
40871;SDS011;26591;43.264;26.940;2022-12-20T12:16:24;19.25;;;10.05;;
40871;SDS011;26591;43.264;26.940;2022-12-20T12:18:59;17.90;;;9.18;;
40871;SDS011;26591;43.264;26.940;2022-12-20T12:21:26;23.55;;;11.15;;
40871;SDS011;26591;43.264;26.940;2022-12-20T12:24:09;18.98;;;10.75;;
40871;SDS011;26591;43.264;26.940;2022-12-20T12:26:46;22.65;;;11.07;;
40871;SDS011;26591;43.264;26.940;2022-12-20T12:29:12;19.73;;;11.07;;
40871;SDS011;26591;43.264;26.940;2022-12-20T12:31:45;20.40;;;11.93;;
40871;SDS011;26591;43.264;26.940;2022-12-20T12:34:29;20.63;;;11.88;;
40871;SDS011;26591;43.264;26.940;2022-12-20T12:46:29;17.77;;;10.50;;
40871;SDS011;26591;43.264;26.940;2022-12-20T12:49:05;19.55;;;11.77;;
40871;SDS011;26591;43.264;26.940;2022-12-20T12:51:40;26.15;;;13.02;;
40871;SDS011;26591;43.264;26.940;2022-12-20T12:56:40;23.27;;;11.13;;
40871;SDS011;26591;43.264;26.940;2022-12-20T12:59:39;35.05;;;15.00;;
40871;SDS011;26591;43.264;26.940;2022-12-20T13:07:27;23.80;;;11.65;;
40871;SDS011;26591;43.264;26.940;2022-12-20T13:15:10;35.35;;;15.85;;
40871;SDS011;26591;43.264;26.940;2022-12-20T13:30:46;33.53;;;16.52;;
40871;SDS011;26591;43.264;26.940;2022-12-20T13:38:36;31.80;;;16.90;;
40871;SDS011;26591;43.264;26.940;2022-12-20T13:41:08;39.28;;;15.50;;
40871;SDS011;26591;43.264;26.940;2022-12-20T13:44:00;56.17;;;18.30;;
40871;SDS011;26591;43.264;26.940;2022-12-20T13:49:33;36.50;;;16.92;;
40871;SDS011;26591;43.264;26.940;2022-12-20T13:54:44;39.72;;;19.92;;
40871;SDS011;26591;43.264;26.940;2022-12-20T13:57:16;91.72;;;41.78;;
40871;SDS011;26591;43.264;26.940;2022-12-20T13:59:51;58.15;;;27.63;;
40871;SDS011;26591;43.264;26.940;2022-12-20T14:02:19;69.22;;;33.92;;
40871;SDS011;26591;43.264;26.940;2022-12-20T14:04:56;60.95;;;25.83;;
40871;SDS011;26591;43.264;26.940;2022-12-20T14:07:44;58.13;;;26.58;;
40871;SDS011;26591;43.264;26.940;2022-12-20T14:10:33;82.20;;;27.17;;
40871;SDS011;26591;43.264;26.940;2022-12-20T14:12:58;58.94;;;28.68;;
40871;SDS011;26591;43.264;26.940;2022-12-20T14:15:33;54.25;;;27.55;;
40871;SDS011;26591;43.264;26.940;2022-12-20T14:18:14;62.03;;;28.00;;
40871;SDS011;26591;43.264;26.940;2022-12-20T14:20:45;66.22;;;28.75;;
40871;SDS011;26591;43.264;26.940;2022-12-20T14:23:24;80.50;;;32.25;;
40871;SDS011;26591;43.264;26.940;2022-12-20T14:25:59;63.05;;;30.67;;
40871;SDS011;26591;43.264;26.940;2022-12-20T14:30:52;97.80;;;38.45;;
40871;SDS011;26591;43.264;26.940;2022-12-20T14:33:19;91.20;;;43.42;;
40871;SDS011;26591;43.264;26.940;2022-12-20T14:35:52;97.53;;;46.55;;
40871;SDS011;26591;43.264;26.940;2022-12-20T14:38:27;85.82;;;43.33;;
40871;SDS011;26591;43.264;26.940;2022-12-20T14:40:55;99.95;;;49.92;;
40871;SDS011;26591;43.264;26.940;2022-12-20T14:43:23;82.97;;;42.97;;
40871;SDS011;26591;43.264;26.940;2022-12-20T14:46:07;101.63;;;43.65;;
40871;SDS011;26591;43.264;26.940;2022-12-20T14:48:41;118.00;;;51.22;;
40871;SDS011;26591;43.264;26.940;2022-12-20T14:51:07;125.15;;;58.95;;
40871;SDS011;26591;43.264;26.940;2022-12-20T14:53:33;125.47;;;63.35;;
40871;SDS011;26591;43.264;26.940;2022-12-20T14:55:59;127.53;;;59.45;;
40871;SDS011;26591;43.264;26.940;2022-12-20T14:58:31;114.95;;;56.17;;
40871;SDS011;26591;43.264;26.940;2022-12-20T15:01:02;111.57;;;57.97;;
40871;SDS011;26591;43.264;26.940;2022-12-20T15:03:51;118.55;;;58.42;;
40871;SDS011;26591;43.264;26.940;2022-12-20T15:06:51;114.63;;;63.45;;
40871;SDS011;26591;43.264;26.940;2022-12-20T15:09:10;173.35;;;92.28;;
40871;SDS011;26591;43.264;26.940;2022-12-20T15:11:36;189.80;;;108.30;;
40871;SDS011;26591;43.264;26.940;2022-12-20T15:14:04;178.70;;;99.68;;
40871;SDS011;26591;43.264;26.940;2022-12-20T15:16:53;222.07;;;117.82;;
40871;SDS011;26591;43.264;26.940;2022-12-20T15:19:19;258.25;;;140.05;;
40871;SDS011;26591;43.264;26.940;2022-12-20T15:21:45;217.52;;;121.50;;
40871;SDS011;26591;43.264;26.940;2022-12-20T15:24:14;137.35;;;74.35;;
40871;SDS011;26591;43.264;26.940;2022-12-20T15:26:43;197.48;;;110.47;;
40871;SDS011;26591;43.264;26.940;2022-12-20T15:29:27;334.08;;;192.65;;
40871;SDS011;26591;43.264;26.940;2022-12-20T15:34:37;267.30;;;127.10;;
40871;SDS011;26591;43.264;26.940;2022-12-20T15:37:04;246.45;;;124.78;;
40871;SDS011;26591;43.264;26.940;2022-12-20T15:39:30;209.38;;;110.78;;
40871;SDS011;26591;43.264;26.940;2022-12-20T15:41:57;199.95;;;116.10;;
40871;SDS011;26591;43.264;26.940;2022-12-20T15:44:26;184.88;;;105.63;;
40871;SDS011;26591;43.264;26.940;2022-12-20T15:46:54;157.68;;;96.95;;
40871;SDS011;26591;43.264;26.940;2022-12-20T15:49:21;137.45;;;78.88;;
40871;SDS011;26591;43.264;26.940;2022-12-20T15:51:49;184.98;;;106.55;;
40871;SDS011;26591;43.264;26.940;2022-12-20T15:54:30;203.45;;;111.35;;
40871;SDS011;26591;43.264;26.940;2022-12-20T15:57:02;228.27;;;123.28;;
40871;SDS011;26591;43.264;26.940;2022-12-20T15:59:31;216.50;;;113.28;;
40871;SDS011;26591;43.264;26.940;2022-12-20T16:01:57;333.35;;;168.90;;
40871;SDS011;26591;43.264;26.940;2022-12-20T16:04:23;246.38;;;122.30;;
40871;SDS011;26591;43.264;26.940;2022-12-20T16:06:49;217.57;;;107.47;;
40871;SDS011;26591;43.264;26.940;2022-12-20T16:09:17;186.68;;;97.18;;
40871;SDS011;26591;43.264;26.940;2022-12-20T16:11:44;189.73;;;96.22;;
40871;SDS011;26591;43.264;26.940;2022-12-20T16:14:13;184.63;;;95.68;;
40871;SDS011;26591;43.264;26.940;2022-12-20T16:16:43;257.77;;;129.68;;
40871;SDS011;26591;43.264;26.940;2022-12-20T16:19:09;310.52;;;157.77;;
40871;SDS011;26591;43.264;26.940;2022-12-20T16:21:39;364.45;;;190.45;;
40871;SDS011;26591;43.264;26.940;2022-12-20T16:24:14;165.63;;;88.72;;
40871;SDS011;26591;43.264;26.940;2022-12-20T16:26:49;214.35;;;113.38;;
40871;SDS011;26591;43.264;26.940;2022-12-20T16:29:15;176.63;;;100.00;;
40871;SDS011;26591;43.264;26.940;2022-12-20T16:31:41;169.30;;;95.97;;